sensor_id;sensor_type;location;lat;lon;timestamp;temperature;humidity
2783;DHT22;1399;47.072;15.452;2022-09-30T00:00:52;15.40;80.90
2783;DHT22;1399;47.072;15.452;2022-09-30T00:03:17;15.40;80.90
2783;DHT22;1399;47.072;15.452;2022-09-30T00:05:43;15.40;81.00
2783;DHT22;1399;47.072;15.452;2022-09-30T00:08:09;15.40;81.00
2783;DHT22;1399;47.072;15.452;2022-09-30T00:10:34;15.40;81.10
2783;DHT22;1399;47.072;15.452;2022-09-30T00:13:00;15.40;81.10
2783;DHT22;1399;47.072;15.452;2022-09-30T00:15:26;15.40;81.10
2783;DHT22;1399;47.072;15.452;2022-09-30T00:17:52;15.40;81.10
2783;DHT22;1399;47.072;15.452;2022-09-30T00:20:18;15.40;81.10
2783;DHT22;1399;47.072;15.452;2022-09-30T00:22:44;15.40;82.00
2783;DHT22;1399;47.072;15.452;2022-09-30T00:25:10;15.30;81.00
2783;DHT22;1399;47.072;15.452;2022-09-30T00:27:36;15.40;81.20
2783;DHT22;1399;47.072;15.452;2022-09-30T00:30:03;15.40;81.20
2783;DHT22;1399;47.072;15.452;2022-09-30T00:32:29;15.40;81.20
2783;DHT22;1399;47.072;15.452;2022-09-30T00:34:55;15.40;81.20
2783;DHT22;1399;47.072;15.452;2022-09-30T00:37:21;15.30;81.20
2783;DHT22;1399;47.072;15.452;2022-09-30T00:39:46;15.40;81.30
2783;DHT22;1399;47.072;15.452;2022-09-30T00:42:14;15.40;81.30
2783;DHT22;1399;47.072;15.452;2022-09-30T00:44:55;15.40;81.30
2783;DHT22;1399;47.072;15.452;2022-09-30T00:52:57;15.30;81.30
2783;DHT22;1399;47.072;15.452;2022-09-30T00:55:44;15.40;81.50
2783;DHT22;1399;47.072;15.452;2022-09-30T00:58:15;15.30;81.30
2783;DHT22;1399;47.072;15.452;2022-09-30T01:00:43;15.30;81.30
2783;DHT22;1399;47.072;15.452;2022-09-30T01:03:09;15.30;81.30
2783;DHT22;1399;47.072;15.452;2022-09-30T01:05:34;15.30;81.30
2783;DHT22;1399;47.072;15.452;2022-09-30T01:08:03;15.30;81.30
2783;DHT22;1399;47.072;15.452;2022-09-30T01:10:29;15.30;81.30
2783;DHT22;1399;47.072;15.452;2022-09-30T01:12:56;15.30;81.30
2783;DHT22;1399;47.072;15.452;2022-09-30T01:15:26;15.30;81.30
2783;DHT22;1399;47.072;15.452;2022-09-30T01:18:10;15.30;81.30
2783;DHT22;1399;47.072;15.452;2022-09-30T01:20:46;15.30;81.30
2783;DHT22;1399;47.072;15.452;2022-09-30T01:26:13;15.30;81.40
2783;DHT22;1399;47.072;15.452;2022-09-30T01:29:09;15.30;81.40
2783;DHT22;1399;47.072;15.452;2022-09-30T01:31:53;15.30;81.40
2783;DHT22;1399;47.072;15.452;2022-09-30T01:39:49;15.30;81.40
2783;DHT22;1399;47.072;15.452;2022-09-30T01:47:28;15.30;81.40
2783;DHT22;1399;47.072;15.452;2022-09-30T01:55:22;15.30;81.50
2783;DHT22;1399;47.072;15.452;2022-09-30T01:58:17;15.30;81.50
2783;DHT22;1399;47.072;15.452;2022-09-30T02:00:49;15.30;81.50
2783;DHT22;1399;47.072;15.452;2022-09-30T02:03:28;15.30;81.50
2783;DHT22;1399;47.072;15.452;2022-09-30T02:06:06;15.30;81.50
2783;DHT22;1399;47.072;15.452;2022-09-30T02:08:53;15.30;81.50
2783;DHT22;1399;47.072;15.452;2022-09-30T02:11:28;15.30;81.60
2783;DHT22;1399;47.072;15.452;2022-09-30T02:19:56;15.30;81.60
2783;DHT22;1399;47.072;15.452;2022-09-30T02:22:40;15.30;81.60
2783;DHT22;1399;47.072;15.452;2022-09-30T02:25:11;15.30;81.60
2783;DHT22;1399;47.072;15.452;2022-09-30T02:27:43;15.30;81.60
2783;DHT22;1399;47.072;15.452;2022-09-30T02:30:11;15.30;82.50
2783;DHT22;1399;47.072;15.452;2022-09-30T02:32:59;15.30;81.60
2783;DHT22;1399;47.072;15.452;2022-09-30T02:35:35;15.30;81.70
2783;DHT22;1399;47.072;15.452;2022-09-30T02:38:25;15.30;81.60
2783;DHT22;1399;47.072;15.452;2022-09-30T02:41:07;15.20;81.50
2783;DHT22;1399;47.072;15.452;2022-09-30T02:43:35;15.20;81.50
2783;DHT22;1399;47.072;15.452;2022-09-30T02:48:58;15.20;81.30
2783;DHT22;1399;47.072;15.452;2022-09-30T02:54:41;15.20;81.30
2783;DHT22;1399;47.072;15.452;2022-09-30T02:57:31;15.20;81.30
2783;DHT22;1399;47.072;15.452;2022-09-30T03:00:00;15.20;81.30
2783;DHT22;1399;47.072;15.452;2022-09-30T03:02:25;15.20;81.40
2783;DHT22;1399;47.072;15.452;2022-09-30T03:04:51;15.20;81.40
2783;DHT22;1399;47.072;15.452;2022-09-30T03:07:17;15.20;81.40
2783;DHT22;1399;47.072;15.452;2022-09-30T03:09:43;15.20;81.50
2783;DHT22;1399;47.072;15.452;2022-09-30T03:18:11;15.20;81.40
2783;DHT22;1399;47.072;15.452;2022-09-30T03:23:54;15.20;81.40
2783;DHT22;1399;47.072;15.452;2022-09-30T03:37:15;15.20;81.40
2783;DHT22;1399;47.072;15.452;2022-09-30T03:39:57;15.20;81.40
2783;DHT22;1399;47.072;15.452;2022-09-30T03:42:43;15.20;81.40
2783;DHT22;1399;47.072;15.452;2022-09-30T03:45:18;15.20;81.50
2783;DHT22;1399;47.072;15.452;2022-09-30T03:47:52;15.20;81.40
2783;DHT22;1399;47.072;15.452;2022-09-30T03:50:22;15.20;81.40
2783;DHT22;1399;47.072;15.452;2022-09-30T03:52:50;15.20;81.40
2783;DHT22;1399;47.072;15.452;2022-09-30T03:55:16;15.20;81.40
2783;DHT22;1399;47.072;15.452;2022-09-30T03:57:44;15.20;81.40
2783;DHT22;1399;47.072;15.452;2022-09-30T04:00:11;15.20;81.40
2783;DHT22;1399;47.072;15.452;2022-09-30T04:02:37;15.20;81.40
2783;DHT22;1399;47.072;15.452;2022-09-30T04:05:04;15.20;81.40
2783;DHT22;1399;47.072;15.452;2022-09-30T04:07:32;15.20;81.40
2783;DHT22;1399;47.072;15.452;2022-09-30T04:09:57;15.20;81.30
2783;DHT22;1399;47.072;15.452;2022-09-30T04:12:23;15.20;81.30
2783;DHT22;1399;47.072;15.452;2022-09-30T04:14:49;15.20;81.30
2783;DHT22;1399;47.072;15.452;2022-09-30T04:17:15;15.20;81.30
2783;DHT22;1399;47.072;15.452;2022-09-30T04:19:41;15.20;81.30
2783;DHT22;1399;47.072;15.452;2022-09-30T04:22:07;15.20;81.30
2783;DHT22;1399;47.072;15.452;2022-09-30T04:24:34;15.20;81.20
2783;DHT22;1399;47.072;15.452;2022-09-30T04:27:00;15.20;81.20
2783;DHT22;1399;47.072;15.452;2022-09-30T04:29:26;15.20;81.20
2783;DHT22;1399;47.072;15.452;2022-09-30T04:31:52;15.20;81.20
2783;DHT22;1399;47.072;15.452;2022-09-30T04:34:18;15.20;81.20
2783;DHT22;1399;47.072;15.452;2022-09-30T04:36:43;15.20;81.20
2783;DHT22;1399;47.072;15.452;2022-09-30T04:39:09;15.20;81.10
2783;DHT22;1399;47.072;15.452;2022-09-30T04:41:35;15.20;81.20
2783;DHT22;1399;47.072;15.452;2022-09-30T04:44:01;15.20;81.20
2783;DHT22;1399;47.072;15.452;2022-09-30T04:46:35;15.20;81.10
2783;DHT22;1399;47.072;15.452;2022-09-30T04:49:02;15.20;81.10
2783;DHT22;1399;47.072;15.452;2022-09-30T04:51:28;15.20;81.20
2783;DHT22;1399;47.072;15.452;2022-09-30T04:53:54;15.20;81.10
2783;DHT22;1399;47.072;15.452;2022-09-30T04:56:20;15.20;81.10
2783;DHT22;1399;47.072;15.452;2022-09-30T04:58:47;15.10;81.00
2783;DHT22;1399;47.072;15.452;2022-09-30T05:01:15;15.20;81.00
2783;DHT22;1399;47.072;15.452;2022-09-30T05:03:41;15.20;81.10
2783;DHT22;1399;47.072;15.452;2022-09-30T05:06:08;15.20;81.10
2783;DHT22;1399;47.072;15.452;2022-09-30T05:08:34;15.10;81.00
2783;DHT22;1399;47.072;15.452;2022-09-30T05:11:05;15.20;81.10
2783;DHT22;1399;47.072;15.452;2022-09-30T05:13:36;15.20;81.10
2783;DHT22;1399;47.072;15.452;2022-09-30T05:16:03;15.20;81.10
2783;DHT22;1399;47.072;15.452;2022-09-30T05:18:29;15.20;81.10
2783;DHT22;1399;47.072;15.452;2022-09-30T05:20:56;15.20;81.10
2783;DHT22;1399;47.072;15.452;2022-09-30T05:23:23;15.20;81.20
2783;DHT22;1399;47.072;15.452;2022-09-30T05:25:50;15.20;81.20
2783;DHT22;1399;47.072;15.452;2022-09-30T05:28:16;15.20;81.20
2783;DHT22;1399;47.072;15.452;2022-09-30T05:30:42;15.20;81.20
2783;DHT22;1399;47.072;15.452;2022-09-30T05:33:09;15.20;81.10
2783;DHT22;1399;47.072;15.452;2022-09-30T05:35:35;15.30;81.30
2783;DHT22;1399;47.072;15.452;2022-09-30T05:38:01;15.30;81.20
2783;DHT22;1399;47.072;15.452;2022-09-30T05:40:31;15.30;81.30
2783;DHT22;1399;47.072;15.452;2022-09-30T05:42:58;15.30;81.30
2783;DHT22;1399;47.072;15.452;2022-09-30T05:45:25;15.30;81.30
2783;DHT22;1399;47.072;15.452;2022-09-30T05:47:55;15.30;81.40
2783;DHT22;1399;47.072;15.452;2022-09-30T05:50:22;15.30;81.30
2783;DHT22;1399;47.072;15.452;2022-09-30T05:52:48;15.40;81.50
2783;DHT22;1399;47.072;15.452;2022-09-30T05:55:19;15.40;81.40
2783;DHT22;1399;47.072;15.452;2022-09-30T05:57:49;15.40;81.30
2783;DHT22;1399;47.072;15.452;2022-09-30T06:00:17;15.40;81.20
2783;DHT22;1399;47.072;15.452;2022-09-30T06:02:42;15.50;81.30
2783;DHT22;1399;47.072;15.452;2022-09-30T06:05:10;15.50;81.20
2783;DHT22;1399;47.072;15.452;2022-09-30T06:07:36;15.50;81.00
2783;DHT22;1399;47.072;15.452;2022-09-30T06:10:07;15.60;81.20
2783;DHT22;1399;47.072;15.452;2022-09-30T06:12:35;15.60;81.10
2783;DHT22;1399;47.072;15.452;2022-09-30T06:15:03;15.60;81.10
2783;DHT22;1399;47.072;15.452;2022-09-30T06:17:29;15.60;81.10
2783;DHT22;1399;47.072;15.452;2022-09-30T06:19:55;15.70;81.10
2783;DHT22;1399;47.072;15.452;2022-09-30T06:22:21;15.70;81.00
2783;DHT22;1399;47.072;15.452;2022-09-30T06:24:47;15.80;81.00
2783;DHT22;1399;47.072;15.452;2022-09-30T06:27:13;15.80;80.80
2783;DHT22;1399;47.072;15.452;2022-09-30T06:29:38;15.80;80.70
2783;DHT22;1399;47.072;15.452;2022-09-30T06:32:05;15.80;80.70
2783;DHT22;1399;47.072;15.452;2022-09-30T06:34:31;15.80;80.70
2783;DHT22;1399;47.072;15.452;2022-09-30T06:36:57;15.90;80.70
2783;DHT22;1399;47.072;15.452;2022-09-30T06:39:22;15.90;80.60
2783;DHT22;1399;47.072;15.452;2022-09-30T06:41:48;15.90;80.60
2783;DHT22;1399;47.072;15.452;2022-09-30T06:44:14;15.90;80.50
2783;DHT22;1399;47.072;15.452;2022-09-30T06:46:40;15.90;80.40
2783;DHT22;1399;47.072;15.452;2022-09-30T06:49:05;15.90;80.30
2783;DHT22;1399;47.072;15.452;2022-09-30T06:51:32;15.90;80.30
2783;DHT22;1399;47.072;15.452;2022-09-30T06:53:58;15.90;80.20
2783;DHT22;1399;47.072;15.452;2022-09-30T06:56:25;15.90;80.20
2783;DHT22;1399;47.072;15.452;2022-09-30T06:58:52;15.90;80.20
2783;DHT22;1399;47.072;15.452;2022-09-30T07:01:18;16.00;80.20
2783;DHT22;1399;47.072;15.452;2022-09-30T07:03:45;16.00;80.20
2783;DHT22;1399;47.072;15.452;2022-09-30T07:06:13;16.00;80.10
2783;DHT22;1399;47.072;15.452;2022-09-30T07:08:39;16.00;80.10
2783;DHT22;1399;47.072;15.452;2022-09-30T07:11:11;16.00;80.00
2783;DHT22;1399;47.072;15.452;2022-09-30T07:13:46;16.00;80.00
2783;DHT22;1399;47.072;15.452;2022-09-30T07:16:15;16.00;80.10
2783;DHT22;1399;47.072;15.452;2022-09-30T07:18:42;16.00;80.20
2783;DHT22;1399;47.072;15.452;2022-09-30T07:21:11;16.00;80.20
2783;DHT22;1399;47.072;15.452;2022-09-30T07:23:38;16.10;80.40
2783;DHT22;1399;47.072;15.452;2022-09-30T07:26:10;16.10;80.30
2783;DHT22;1399;47.072;15.452;2022-09-30T07:28:36;16.10;80.30
2783;DHT22;1399;47.072;15.452;2022-09-30T07:31:16;16.10;80.30
2783;DHT22;1399;47.072;15.452;2022-09-30T07:33:42;16.20;80.30
2783;DHT22;1399;47.072;15.452;2022-09-30T07:36:09;16.20;80.30
2783;DHT22;1399;47.072;15.452;2022-09-30T07:38:38;16.20;80.30
2783;DHT22;1399;47.072;15.452;2022-09-30T07:43:32;16.30;80.30
2783;DHT22;1399;47.072;15.452;2022-09-30T07:46:15;16.30;80.10
2783;DHT22;1399;47.072;15.452;2022-09-30T07:48:44;16.40;79.90
2783;DHT22;1399;47.072;15.452;2022-09-30T07:51:26;16.40;79.60
2783;DHT22;1399;47.072;15.452;2022-09-30T07:53:57;16.50;79.70
2783;DHT22;1399;47.072;15.452;2022-09-30T07:56:24;16.50;79.80
2783;DHT22;1399;47.072;15.452;2022-09-30T07:58:58;16.50;79.70
2783;DHT22;1399;47.072;15.452;2022-09-30T08:01:26;16.50;79.70
2783;DHT22;1399;47.072;15.452;2022-09-30T08:03:54;16.60;79.70
2783;DHT22;1399;47.072;15.452;2022-09-30T08:06:21;16.60;79.60
2783;DHT22;1399;47.072;15.452;2022-09-30T08:08:50;16.60;79.40
2783;DHT22;1399;47.072;15.452;2022-09-30T08:11:16;16.70;79.40
2783;DHT22;1399;47.072;15.452;2022-09-30T08:13:42;16.80;79.10
2783;DHT22;1399;47.072;15.452;2022-09-30T08:16:08;16.90;78.80
2783;DHT22;1399;47.072;15.452;2022-09-30T08:18:34;17.00;78.50
2783;DHT22;1399;47.072;15.452;2022-09-30T08:21:04;17.10;78.30
2783;DHT22;1399;47.072;15.452;2022-09-30T08:23:31;17.20;78.10
2783;DHT22;1399;47.072;15.452;2022-09-30T08:26:08;17.30;77.90
2783;DHT22;1399;47.072;15.452;2022-09-30T08:28:35;17.40;77.70
2783;DHT22;1399;47.072;15.452;2022-09-30T08:33:57;17.40;77.10
2783;DHT22;1399;47.072;15.452;2022-09-30T08:36:25;17.50;77.00
2783;DHT22;1399;47.072;15.452;2022-09-30T08:38:51;17.60;77.00
2783;DHT22;1399;47.072;15.452;2022-09-30T08:50:01;17.60;76.80
2783;DHT22;1399;47.072;15.452;2022-09-30T08:52:44;17.60;76.90
2783;DHT22;1399;47.072;15.452;2022-09-30T08:55:34;17.60;76.90
2783;DHT22;1399;47.072;15.452;2022-09-30T08:58:04;17.50;77.00
2783;DHT22;1399;47.072;15.452;2022-09-30T09:00:30;17.50;77.00
2783;DHT22;1399;47.072;15.452;2022-09-30T09:03:00;17.50;76.90
2783;DHT22;1399;47.072;15.452;2022-09-30T09:05:48;17.60;77.00
2783;DHT22;1399;47.072;15.452;2022-09-30T09:20:14;17.50;77.00
2783;DHT22;1399;47.072;15.452;2022-09-30T09:22:41;17.60;76.90
2783;DHT22;1399;47.072;15.452;2022-09-30T09:25:14;17.70;76.70
2783;DHT22;1399;47.072;15.452;2022-09-30T09:28:05;17.80;76.40
2783;DHT22;1399;47.072;15.452;2022-09-30T09:30:37;17.90;76.80
2783;DHT22;1399;47.072;15.452;2022-09-30T09:33:21;18.00;75.50
2783;DHT22;1399;47.072;15.452;2022-09-30T09:38:26;18.10;74.90
2783;DHT22;1399;47.072;15.452;2022-09-30T09:46:47;18.20;74.40
2783;DHT22;1399;47.072;15.452;2022-09-30T09:54:50;18.10;75.00
2783;DHT22;1399;47.072;15.452;2022-09-30T09:57:19;18.10;75.10
2783;DHT22;1399;47.072;15.452;2022-09-30T10:00:21;18.10;75.10
2783;DHT22;1399;47.072;15.452;2022-09-30T10:03:12;18.10;75.10
2783;DHT22;1399;47.072;15.452;2022-09-30T10:05:43;18.20;75.00
2783;DHT22;1399;47.072;15.452;2022-09-30T10:08:19;18.20;74.80
2783;DHT22;1399;47.072;15.452;2022-09-30T10:11:00;18.20;74.70
2783;DHT22;1399;47.072;15.452;2022-09-30T10:13:43;18.20;74.60
2783;DHT22;1399;47.072;15.452;2022-09-30T10:16:30;18.20;74.70
2783;DHT22;1399;47.072;15.452;2022-09-30T10:18:57;18.20;74.80
2783;DHT22;1399;47.072;15.452;2022-09-30T10:21:25;18.20;74.60
2783;DHT22;1399;47.072;15.452;2022-09-30T10:23:52;18.20;74.60
2783;DHT22;1399;47.072;15.452;2022-09-30T10:26:19;18.20;74.50
2783;DHT22;1399;47.072;15.452;2022-09-30T10:28:46;18.20;74.40
2783;DHT22;1399;47.072;15.452;2022-09-30T10:34:20;18.30;74.20
2783;DHT22;1399;47.072;15.452;2022-09-30T10:36:48;18.30;73.90
2783;DHT22;1399;47.072;15.452;2022-09-30T10:39:24;18.40;73.80
2783;DHT22;1399;47.072;15.452;2022-09-30T10:42:18;18.40;73.50
2783;DHT22;1399;47.072;15.452;2022-09-30T10:44:52;18.50;73.40
2783;DHT22;1399;47.072;15.452;2022-09-30T10:47:22;18.60;73.20
2783;DHT22;1399;47.072;15.452;2022-09-30T10:52:35;18.70;73.10
2783;DHT22;1399;47.072;15.452;2022-09-30T10:55:07;18.70;72.90
2783;DHT22;1399;47.072;15.452;2022-09-30T10:57:35;18.70;72.80
2783;DHT22;1399;47.072;15.452;2022-09-30T11:00:06;18.80;72.90
2783;DHT22;1399;47.072;15.452;2022-09-30T11:02:55;18.80;72.80
2783;DHT22;1399;47.072;15.452;2022-09-30T11:05:27;18.80;72.80
2783;DHT22;1399;47.072;15.452;2022-09-30T11:10:43;18.70;72.80
2783;DHT22;1399;47.072;15.452;2022-09-30T11:18:52;18.70;73.00
2783;DHT22;1399;47.072;15.452;2022-09-30T11:21:28;18.70;73.00
2783;DHT22;1399;47.072;15.452;2022-09-30T11:23:59;18.70;73.00
2783;DHT22;1399;47.072;15.452;2022-09-30T11:44:56;18.80;72.80
2783;DHT22;1399;47.072;15.452;2022-09-30T11:50:03;18.80;72.80
2783;DHT22;1399;47.072;15.452;2022-09-30T11:55:19;18.80;72.40
2783;DHT22;1399;47.072;15.452;2022-09-30T11:58:04;18.90;72.40
2783;DHT22;1399;47.072;15.452;2022-09-30T12:00:35;18.90;72.10
2783;DHT22;1399;47.072;15.452;2022-09-30T12:03:14;19.00;72.10
2783;DHT22;1399;47.072;15.452;2022-09-30T12:05:50;19.00;72.10
2783;DHT22;1399;47.072;15.452;2022-09-30T12:08:39;19.00;71.90
2783;DHT22;1399;47.072;15.452;2022-09-30T12:11:13;19.00;72.00
2783;DHT22;1399;47.072;15.452;2022-09-30T12:13:49;19.00;72.00
2783;DHT22;1399;47.072;15.452;2022-09-30T12:16:20;19.00;72.00
2783;DHT22;1399;47.072;15.452;2022-09-30T12:18:52;19.00;72.00
2783;DHT22;1399;47.072;15.452;2022-09-30T12:24:18;19.00;72.00
2783;DHT22;1399;47.072;15.452;2022-09-30T12:26:41;19.00;71.90
2783;DHT22;1399;47.072;15.452;2022-09-30T12:29:24;19.10;71.80
2783;DHT22;1399;47.072;15.452;2022-09-30T12:48:36;19.20;71.10
2783;DHT22;1399;47.072;15.452;2022-09-30T12:51:04;19.20;71.10
2783;DHT22;1399;47.072;15.452;2022-09-30T12:53:32;19.20;71.20
2783;DHT22;1399;47.072;15.452;2022-09-30T12:56:13;19.20;71.20
2783;DHT22;1399;47.072;15.452;2022-09-30T12:58:58;19.20;71.20
2783;DHT22;1399;47.072;15.452;2022-09-30T13:01:35;19.20;71.10
2783;DHT22;1399;47.072;15.452;2022-09-30T13:09:21;19.10;71.00
2783;DHT22;1399;47.072;15.452;2022-09-30T13:14:39;19.10;71.00
2783;DHT22;1399;47.072;15.452;2022-09-30T13:19:47;19.00;70.80
2783;DHT22;1399;47.072;15.452;2022-09-30T13:27:43;19.00;70.70
2783;DHT22;1399;47.072;15.452;2022-09-30T13:32:43;19.00;70.50
2783;DHT22;1399;47.072;15.452;2022-09-30T13:35:34;19.00;70.50
2783;DHT22;1399;47.072;15.452;2022-09-30T13:43:22;19.10;70.40
2783;DHT22;1399;47.072;15.452;2022-09-30T13:45:52;19.10;70.30
2783;DHT22;1399;47.072;15.452;2022-09-30T13:50:51;19.00;70.30
2783;DHT22;1399;47.072;15.452;2022-09-30T13:53:31;19.00;70.40
2783;DHT22;1399;47.072;15.452;2022-09-30T13:56:05;19.00;70.40
2783;DHT22;1399;47.072;15.452;2022-09-30T13:58:43;19.00;70.40
2783;DHT22;1399;47.072;15.452;2022-09-30T14:20:24;18.80;70.70
2783;DHT22;1399;47.072;15.452;2022-09-30T14:22:55;18.70;70.80
2783;DHT22;1399;47.072;15.452;2022-09-30T14:25:21;18.70;71.00
2783;DHT22;1399;47.072;15.452;2022-09-30T14:27:55;18.60;71.00
2783;DHT22;1399;47.072;15.452;2022-09-30T14:30:24;18.60;71.20
2783;DHT22;1399;47.072;15.452;2022-09-30T14:32:57;18.60;71.40
2783;DHT22;1399;47.072;15.452;2022-09-30T14:35:28;18.50;71.50
2783;DHT22;1399;47.072;15.452;2022-09-30T14:38:16;18.60;71.70
2783;DHT22;1399;47.072;15.452;2022-09-30T14:40:50;18.50;71.80
2783;DHT22;1399;47.072;15.452;2022-09-30T14:43:22;18.50;71.90
2783;DHT22;1399;47.072;15.452;2022-09-30T14:45:55;18.50;71.80
2783;DHT22;1399;47.072;15.452;2022-09-30T14:48:26;18.50;71.90
2783;DHT22;1399;47.072;15.452;2022-09-30T14:51:05;18.50;71.90
2783;DHT22;1399;47.072;15.452;2022-09-30T14:53:40;18.50;71.90
2783;DHT22;1399;47.072;15.452;2022-09-30T14:56:34;18.50;71.90
2783;DHT22;1399;47.072;15.452;2022-09-30T14:59:17;18.50;71.90
2783;DHT22;1399;47.072;15.452;2022-09-30T15:01:46;18.50;71.90
2783;DHT22;1399;47.072;15.452;2022-09-30T15:04:18;18.50;72.00
2783;DHT22;1399;47.072;15.452;2022-09-30T15:06:48;18.50;72.10
2783;DHT22;1399;47.072;15.452;2022-09-30T15:09:19;18.40;72.20
2783;DHT22;1399;47.072;15.452;2022-09-30T15:11:46;18.40;72.30
2783;DHT22;1399;47.072;15.452;2022-09-30T15:14:23;18.40;72.40
2783;DHT22;1399;47.072;15.452;2022-09-30T15:16:51;18.40;72.50
2783;DHT22;1399;47.072;15.452;2022-09-30T15:21:49;18.40;72.70
2783;DHT22;1399;47.072;15.452;2022-09-30T15:24:17;18.30;72.60
2783;DHT22;1399;47.072;15.452;2022-09-30T15:26:44;18.30;72.70
2783;DHT22;1399;47.072;15.452;2022-09-30T15:29:17;18.30;72.80
2783;DHT22;1399;47.072;15.452;2022-09-30T15:31:45;18.30;72.90
2783;DHT22;1399;47.072;15.452;2022-09-30T15:34:17;18.30;73.00
2783;DHT22;1399;47.072;15.452;2022-09-30T15:36:46;18.30;73.10
2783;DHT22;1399;47.072;15.452;2022-09-30T15:39:27;18.20;73.10
2783;DHT22;1399;47.072;15.452;2022-09-30T15:47:57;18.20;73.60
2783;DHT22;1399;47.072;15.452;2022-09-30T15:50:57;18.10;73.60
2783;DHT22;1399;47.072;15.452;2022-09-30T15:53:44;18.10;73.80
2783;DHT22;1399;47.072;15.452;2022-09-30T15:56:25;18.10;74.00
2783;DHT22;1399;47.072;15.452;2022-09-30T15:58:56;18.00;74.00
2783;DHT22;1399;47.072;15.452;2022-09-30T16:01:33;18.00;74.10
2783;DHT22;1399;47.072;15.452;2022-09-30T16:06:42;18.00;74.30
2783;DHT22;1399;47.072;15.452;2022-09-30T16:17:05;17.80;74.60
2783;DHT22;1399;47.072;15.452;2022-09-30T16:19:32;17.80;74.70
2783;DHT22;1399;47.072;15.452;2022-09-30T16:21:58;17.80;74.80
2783;DHT22;1399;47.072;15.452;2022-09-30T16:26:53;17.80;75.00
2783;DHT22;1399;47.072;15.452;2022-09-30T16:29:24;17.80;75.10
2783;DHT22;1399;47.072;15.452;2022-09-30T16:31:53;17.80;75.20
2783;DHT22;1399;47.072;15.452;2022-09-30T16:34:22;17.70;76.10
2783;DHT22;1399;47.072;15.452;2022-09-30T16:36:49;17.70;75.40
2783;DHT22;1399;47.072;15.452;2022-09-30T16:39:15;17.70;75.40
2783;DHT22;1399;47.072;15.452;2022-09-30T16:41:42;17.70;75.60
2783;DHT22;1399;47.072;15.452;2022-09-30T16:44:08;17.60;75.60
2783;DHT22;1399;47.072;15.452;2022-09-30T16:46:34;17.60;75.70
2783;DHT22;1399;47.072;15.452;2022-09-30T16:49:20;17.60;75.80
2783;DHT22;1399;47.072;15.452;2022-09-30T16:51:46;17.60;75.90
2783;DHT22;1399;47.072;15.452;2022-09-30T16:54:12;17.60;76.00
2783;DHT22;1399;47.072;15.452;2022-09-30T16:56:38;17.60;76.20
2783;DHT22;1399;47.072;15.452;2022-09-30T16:59:09;17.60;76.30
2783;DHT22;1399;47.072;15.452;2022-09-30T17:01:37;17.50;76.30
2783;DHT22;1399;47.072;15.452;2022-09-30T17:04:03;17.60;76.40
2783;DHT22;1399;47.072;15.452;2022-09-30T17:06:31;17.50;76.50
2783;DHT22;1399;47.072;15.452;2022-09-30T17:08:57;17.50;76.50
2783;DHT22;1399;47.072;15.452;2022-09-30T17:11:27;17.50;76.60
2783;DHT22;1399;47.072;15.452;2022-09-30T17:14:01;17.50;76.60
2783;DHT22;1399;47.072;15.452;2022-09-30T17:16:28;17.50;76.80
2783;DHT22;1399;47.072;15.452;2022-09-30T17:18:54;17.50;77.00
2783;DHT22;1399;47.072;15.452;2022-09-30T17:21:22;17.50;77.20
2783;DHT22;1399;47.072;15.452;2022-09-30T17:23:48;17.40;77.20
2783;DHT22;1399;47.072;15.452;2022-09-30T17:26:15;17.40;77.40
2783;DHT22;1399;47.072;15.452;2022-09-30T17:28:41;17.40;77.50
2783;DHT22;1399;47.072;15.452;2022-09-30T17:31:07;17.40;77.60
2783;DHT22;1399;47.072;15.452;2022-09-30T17:33:35;17.40;77.70
2783;DHT22;1399;47.072;15.452;2022-09-30T17:36:10;17.40;77.80
2783;DHT22;1399;47.072;15.452;2022-09-30T17:38:36;17.30;77.90
2783;DHT22;1399;47.072;15.452;2022-09-30T17:41:03;17.30;78.10
2783;DHT22;1399;47.072;15.452;2022-09-30T17:43:49;17.30;78.20
2783;DHT22;1399;47.072;15.452;2022-09-30T17:46:16;17.30;78.30
2783;DHT22;1399;47.072;15.452;2022-09-30T17:48:44;17.30;78.40
2783;DHT22;1399;47.072;15.452;2022-09-30T17:51:12;17.30;78.60
2783;DHT22;1399;47.072;15.452;2022-09-30T17:53:38;17.30;78.80
2783;DHT22;1399;47.072;15.452;2022-09-30T17:56:15;17.30;78.90
2783;DHT22;1399;47.072;15.452;2022-09-30T17:58:42;17.20;78.90
2783;DHT22;1399;47.072;15.452;2022-09-30T18:01:14;17.20;79.00
2783;DHT22;1399;47.072;15.452;2022-09-30T18:03:40;17.20;79.20
2783;DHT22;1399;47.072;15.452;2022-09-30T18:06:06;17.20;79.20
2783;DHT22;1399;47.072;15.452;2022-09-30T18:08:32;17.20;79.40
2783;DHT22;1399;47.072;15.452;2022-09-30T18:10:59;17.20;79.40
2783;DHT22;1399;47.072;15.452;2022-09-30T18:13:28;17.20;79.50
2783;DHT22;1399;47.072;15.452;2022-09-30T18:15:54;17.20;79.60
2783;DHT22;1399;47.072;15.452;2022-09-30T18:18:23;17.20;79.80
2783;DHT22;1399;47.072;15.452;2022-09-30T18:20:49;17.20;80.00
2783;DHT22;1399;47.072;15.452;2022-09-30T18:23:16;17.10;79.90
2783;DHT22;1399;47.072;15.452;2022-09-30T18:25:46;17.20;80.20
2783;DHT22;1399;47.072;15.452;2022-09-30T18:28:15;17.10;80.20
2783;DHT22;1399;47.072;15.452;2022-09-30T18:30:41;17.10;80.20
2783;DHT22;1399;47.072;15.452;2022-09-30T18:33:08;17.10;80.30
2783;DHT22;1399;47.072;15.452;2022-09-30T18:35:37;17.10;80.40
2783;DHT22;1399;47.072;15.452;2022-09-30T18:38:05;17.10;80.50
2783;DHT22;1399;47.072;15.452;2022-09-30T18:40:31;17.10;80.70
2783;DHT22;1399;47.072;15.452;2022-09-30T18:43:00;17.10;80.70
2783;DHT22;1399;47.072;15.452;2022-09-30T18:45:33;17.10;80.70
2783;DHT22;1399;47.072;15.452;2022-09-30T18:48:03;17.10;81.00
2783;DHT22;1399;47.072;15.452;2022-09-30T18:50:29;17.10;81.10
2783;DHT22;1399;47.072;15.452;2022-09-30T18:52:56;17.10;81.20
2783;DHT22;1399;47.072;15.452;2022-09-30T18:55:23;17.10;81.20
2783;DHT22;1399;47.072;15.452;2022-09-30T18:57:52;17.10;81.30
2783;DHT22;1399;47.072;15.452;2022-09-30T19:00:18;17.10;81.50
2783;DHT22;1399;47.072;15.452;2022-09-30T19:02:45;17.10;81.60
2783;DHT22;1399;47.072;15.452;2022-09-30T19:05:12;17.10;81.70
2783;DHT22;1399;47.072;15.452;2022-09-30T19:07:39;17.10;81.90
2783;DHT22;1399;47.072;15.452;2022-09-30T19:10:06;17.00;81.90
2783;DHT22;1399;47.072;15.452;2022-09-30T19:12:36;17.00;82.00
2783;DHT22;1399;47.072;15.452;2022-09-30T19:15:05;17.00;82.00
2783;DHT22;1399;47.072;15.452;2022-09-30T19:17:31;17.00;82.00
2783;DHT22;1399;47.072;15.452;2022-09-30T19:19:58;17.00;82.10
2783;DHT22;1399;47.072;15.452;2022-09-30T19:22:28;17.00;82.20
2783;DHT22;1399;47.072;15.452;2022-09-30T19:24:54;17.00;82.30
2783;DHT22;1399;47.072;15.452;2022-09-30T19:27:21;16.90;82.30
2783;DHT22;1399;47.072;15.452;2022-09-30T19:29:49;16.90;82.40
2783;DHT22;1399;47.072;15.452;2022-09-30T19:32:17;17.00;82.50
2783;DHT22;1399;47.072;15.452;2022-09-30T19:34:45;16.90;82.50
2783;DHT22;1399;47.072;15.452;2022-09-30T19:37:12;17.00;82.70
2783;DHT22;1399;47.072;15.452;2022-09-30T19:39:38;16.90;82.60
2783;DHT22;1399;47.072;15.452;2022-09-30T19:42:04;16.90;82.70
2783;DHT22;1399;47.072;15.452;2022-09-30T19:44:31;16.90;82.80
2783;DHT22;1399;47.072;15.452;2022-09-30T19:46:57;16.90;82.80